Time;durP1;ratioP1;P1;durP2;ratioP2;P2;SDS_P1;SDS_P2;PMS_P1;PMS_P2;Temp;Humidity;BMP_temperature;BMP_pressure;BME280_temperature;BME280_humidity;BME280_pressure;Samples;Min_cycle;Max_cycle;Signal;HPM_P1;HPM_P2
2024/01/27 00:01:49;;;;;;;19.88;5.25;;;6.10;99.90;;;;;;5007715;28;20620;-76
2024/01/27 00:04:16;;;;;;;22.83;5.25;;;6.10;99.90;;;;;;5009817;28;20205;-73
2024/01/27 00:06:44;;;;;;;22.05;6.10;;;6.10;99.90;;;;;;5009648;28;20202;-74
2024/01/27 00:09:11;;;;;;;27.92;6.00;;;6.10;99.90;;;;;;4997333;28;20206;-72
2024/01/27 00:11:38;;;;;;;24.45;5.03;;;6.10;99.90;;;;;;5006717;28;20209;-74
2024/01/27 00:14:05;;;;;;;12.30;4.95;;;6.10;99.90;;;;;;5001212;28;20206;-74
2024/01/27 00:16:33;;;;;;;11.18;4.43;;;6.10;99.90;;;;;;4996583;28;20218;-74
2024/01/27 00:19:00;;;;;;;32.50;5.85;;;6.00;99.90;;;;;;5004655;28;20263;-73
2024/01/27 00:21:27;;;;;;;23.33;5.97;;;6.00;99.90;;;;;;4997574;28;20265;-75
2024/01/27 00:24:00;;;;;;;14.13;4.22;;;6.00;99.90;;;;;;5001709;28;20233;-78
2024/01/27 00:26:27;;;;;;;17.33;5.68;;;5.90;99.90;;;;;;5010666;28;20201;-74
2024/01/27 00:28:55;;;;;;;19.10;4.05;;;5.90;99.90;;;;;;5005282;28;20293;-76
2024/01/27 00:31:22;;;;;;;19.35;4.93;;;5.90;99.90;;;;;;5004357;28;20287;-75
2024/01/27 00:33:49;;;;;;;25.35;5.55;;;5.90;99.90;;;;;;5004216;28;20292;-74
2024/01/27 00:36:16;;;;;;;22.27;5.03;;;5.80;99.90;;;;;;5003726;28;20225;-73
2024/01/27 00:38:43;;;;;;;14.57;4.30;;;5.80;99.90;;;;;;5012714;28;20221;-72
2024/01/27 00:41:17;;;;;;;19.00;4.80;;;5.80;99.90;;;;;;5005698;28;20210;-75
2024/01/27 00:43:44;;;;;;;25.65;4.72;;;5.70;99.90;;;;;;5009269;28;20260;-76
2024/01/27 00:46:11;;;;;;;22.83;4.95;;;5.70;99.90;;;;;;5000476;28;20207;-74
2024/01/27 00:48:38;;;;;;;18.80;5.28;;;5.70;99.90;;;;;;5005863;28;20232;-74
2024/01/27 00:51:05;;;;;;;22.55;6.00;;;5.70;99.90;;;;;;5013018;28;20279;-75
2024/01/27 00:53:32;;;;;;;29.13;5.68;;;5.70;99.90;;;;;;5002156;28;20232;-74
2024/01/27 00:55:59;;;;;;;16.23;4.80;;;5.70;99.90;;;;;;5003784;28;20257;-73
2024/01/27 00:58:28;;;;;;;28.08;6.85;;;5.70;99.90;;;;;;5009817;28;20207;-76
2024/01/27 01:00:55;;;;;;;14.38;4.95;;;5.60;99.90;;;;;;5005474;28;20229;-72
2024/01/27 01:03:21;;;;;;;22.75;5.93;;;5.60;99.90;;;;;;5011454;28;20273;-75
2024/01/27 01:05:48;;;;;;;9.80;3.58;;;5.60;99.90;;;;;;5010974;28;20208;-74
2024/01/27 01:08:15;;;;;;;15.82;6.10;;;5.60;99.90;;;;;;4997145;28;20260;-74
2024/01/27 01:10:42;;;;;;;23.85;5.55;;;5.60;99.90;;;;;;5000621;28;20205;-74
2024/01/27 01:13:09;;;;;;;35.15;5.80;;;5.60;99.90;;;;;;5003338;28;20221;-73
2024/01/27 01:15:39;;;;;;;18.98;4.35;;;5.60;99.90;;;;;;5008486;28;20216;-73
2024/01/27 01:18:06;;;;;;;20.20;4.70;;;5.50;99.90;;;;;;5010538;28;20608;-75
2024/01/27 01:20:33;;;;;;;28.38;4.43;;;5.50;99.90;;;;;;5001993;28;20210;-73
2024/01/27 01:23:00;;;;;;;19.88;4.53;;;5.50;99.90;;;;;;5004262;28;20320;-73
2024/01/27 01:25:27;;;;;;;15.85;3.78;;;5.50;99.90;;;;;;5003835;28;20205;-73
2024/01/27 01:27:54;;;;;;;20.05;5.22;;;5.50;99.90;;;;;;5006594;28;20253;-75
2024/01/27 01:30:21;;;;;;;31.40;4.40;;;5.50;99.90;;;;;;5006882;28;20296;-76
2024/01/27 01:32:50;;;;;;;14.73;6.85;;;5.50;99.90;;;;;;5012262;28;20566;-76
2024/01/27 01:35:17;;;;;;;13.00;4.00;;;5.50;99.90;;;;;;5008296;28;20252;-75
2024/01/27 01:37:44;;;;;;;23.80;4.68;;;5.50;99.90;;;;;;4997360;28;20228;-75
2024/01/27 01:40:12;;;;;;;24.65;4.15;;;5.50;99.90;;;;;;5004287;28;20664;-75
2024/01/27 01:42:39;;;;;;;17.20;4.43;;;5.50;99.90;;;;;;5008715;28;20712;-73
2024/01/27 01:45:06;;;;;;;16.23;4.72;;;5.50;99.90;;;;;;4995393;28;20202;-74
2024/01/27 01:47:33;;;;;;;16.17;4.18;;;5.50;99.90;;;;;;4995959;28;20268;-77
2024/01/27 01:50:03;;;;;;;18.58;4.95;;;5.50;99.90;;;;;;5003578;28;20237;-76
2024/01/27 01:52:30;;;;;;;21.55;5.38;;;5.60;99.90;;;;;;5002599;28;20226;-74
2024/01/27 01:54:57;;;;;;;20.30;4.47;;;5.50;99.90;;;;;;5006203;28;20218;-76
2024/01/27 01:57:24;;;;;;;17.92;4.55;;;5.50;99.90;;;;;;5005923;28;20206;-75
2024/01/27 01:59:51;;;;;;;26.17;4.72;;;5.50;99.90;;;;;;5001984;28;20206;-73
2024/01/27 02:02:18;;;;;;;25.05;5.68;;;5.50;99.90;;;;;;5006069;28;20726;-73
2024/01/27 02:04:46;;;;;;;18.00;5.40;;;5.40;99.90;;;;;;4997995;28;20657;-73
2024/01/27 02:07:15;;;;;;;20.50;5.68;;;5.40;99.90;;;;;;5008369;28;20253;-73
2024/01/27 02:09:42;;;;;;;24.08;6.00;;;5.40;99.90;;;;;;4997318;28;20570;-74
2024/01/27 02:12:09;;;;;;;22.58;5.35;;;5.50;99.90;;;;;;4997236;28;20288;-73
2024/01/27 02:14:36;;;;;;;27.38;5.78;;;5.50;99.90;;;;;;4999702;28;20217;-73
2024/01/27 02:17:04;;;;;;;18.70;4.70;;;5.50;99.90;;;;;;5011914;28;20217;-75
2024/01/27 02:19:31;;;;;;;20.98;5.50;;;5.50;99.90;;;;;;4995646;28;20205;-75
2024/01/27 02:21:58;;;;;;;16.98;4.70;;;5.40;99.90;;;;;;4998681;28;20299;-76
2024/01/27 02:24:28;;;;;;;23.15;5.47;;;5.40;99.90;;;;;;4995799;28;20246;-73
2024/01/27 02:26:55;;;;;;;27.90;6.10;;;5.30;99.90;;;;;;5005862;28;20291;-75
2024/01/27 02:29:22;;;;;;;22.80;5.05;;;5.40;99.90;;;;;;5004144;28;20228;-73
2024/01/27 02:31:49;;;;;;;9.07;4.20;;;5.40;99.90;;;;;;4998525;28;20210;-75
2024/01/27 02:34:16;;;;;;;22.27;4.18;;;5.40;99.90;;;;;;5002792;28;20232;-76
2024/01/27 02:36:44;;;;;;;18.17;5.35;;;5.40;99.90;;;;;;4996797;28;20226;-74
2024/01/27 02:39:11;;;;;;;22.67;3.75;;;5.40;99.90;;;;;;5000583;28;20579;-73
2024/01/27 02:42:07;;;;;;;10.52;4.50;;;5.40;99.90;;;;;;4999049;28;20210;-74
2024/01/27 02:44:36;;;;;;;12.23;3.38;;;5.40;99.90;;;;;;5009161;28;20661;-75
2024/01/27 02:47:04;;;;;;;16.00;5.57;;;5.40;99.90;;;;;;4995956;28;20264;-74
2024/01/27 02:49:31;;;;;;;17.25;3.95;;;5.30;99.90;;;;;;5002490;28;20209;-74
2024/01/27 02:52:04;;;;;;;19.90;4.25;;;5.30;99.90;;;;;;4995131;28;20226;-75
2024/01/27 02:54:31;;;;;;;23.08;4.68;;;5.30;99.90;;;;;;5001134;28;20253;-74
2024/01/27 02:56:58;;;;;;;21.00;3.95;;;5.30;99.90;;;;;;4996178;28;20210;-73
2024/01/27 02:59:31;;;;;;;15.52;4.50;;;5.30;99.90;;;;;;4998866;28;20684;-73
2024/01/27 03:01:58;;;;;;;23.90;4.82;;;5.30;99.90;;;;;;4999136;28;20218;-76
2024/01/27 03:04:25;;;;;;;16.67;4.97;;;5.20;99.90;;;;;;5000037;28;20272;-75
2024/01/27 03:06:52;;;;;;;26.70;5.93;;;5.20;99.90;;;;;;4997463;28;20202;-72
2024/01/27 03:09:19;;;;;;;18.63;4.47;;;5.30;99.90;;;;;;5003423;28;20205;-74
2024/01/27 03:11:46;;;;;;;23.98;4.57;;;5.30;99.90;;;;;;5001213;28;20547;-75
2024/01/27 03:14:13;;;;;;;13.63;4.22;;;5.30;99.90;;;;;;4994842;28;20221;-76
2024/01/27 03:16:43;;;;;;;14.68;5.13;;;5.30;99.90;;;;;;4997085;28;20217;-75
2024/01/27 03:19:10;;;;;;;15.15;4.22;;;5.30;99.90;;;;;;5005102;28;20213;-76
2024/01/27 03:21:37;;;;;;;16.45;4.53;;;5.30;99.90;;;;;;5001772;28;20201;-73
2024/01/27 03:24:04;;;;;;;24.52;5.10;;;5.30;99.90;;;;;;5001461;28;20210;-73
2024/01/27 03:26:31;;;;;;;25.23;5.55;;;5.30;99.90;;;;;;4995801;28;20198;-76
2024/01/27 03:28:58;;;;;;;16.38;3.40;;;5.40;99.90;;;;;;5001147;28;20202;-77
2024/01/27 03:31:31;;;;;;;18.80;6.00;;;5.40;99.90;;;;;;5001453;28;20206;-74
2024/01/27 03:34:00;;;;;;;36.35;6.30;;;5.30;99.90;;;;;;4999502;28;20201;-73
2024/01/27 03:36:28;;;;;;;14.95;5.53;;;5.30;99.90;;;;;;4994421;28;20225;-76
2024/01/27 03:38:57;;;;;;;14.63;3.70;;;5.30;99.90;;;;;;5005693;28;20244;-75
2024/01/27 03:41:24;;;;;;;24.27;4.78;;;5.30;99.90;;;;;;4995512;28;20217;-75
2024/01/27 03:43:51;;;;;;;20.73;4.40;;;5.30;99.90;;;;;;5003222;28;20779;-73
2024/01/27 03:46:18;;;;;;;18.80;4.25;;;5.30;99.90;;;;;;4999563;28;20207;-74
2024/01/27 03:48:45;;;;;;;23.35;4.38;;;5.30;99.90;;;;;;4998840;28;20256;-74
2024/01/27 03:51:13;;;;;;;19.75;4.05;;;5.20;99.90;;;;;;5004557;28;20743;-74
2024/01/27 03:53:40;;;;;;;18.42;4.13;;;5.20;99.90;;;;;;5009288;28;20599;-76
2024/01/27 03:56:07;;;;;;;27.58;5.57;;;5.20;99.90;;;;;;4999225;28;20268;-73
2024/01/27 03:58:34;;;;;;;21.30;5.65;;;5.20;99.90;;;;;;5007191;28;20264;-72
2024/01/27 04:01:02;;;;;;;12.98;5.07;;;5.20;99.90;;;;;;5003674;28;20622;-74
2024/01/27 04:03:29;;;;;;;14.57;4.25;;;5.30;99.90;;;;;;5007826;28;20225;-74
2024/01/27 04:05:56;;;;;;;19.17;4.65;;;5.10;99.90;;;;;;4999520;28;20253;-74
2024/01/27 04:08:24;;;;;;;17.33;4.75;;;5.10;99.90;;;;;;5005001;28;20206;-76
2024/01/27 04:10:51;;;;;;;24.65;4.82;;;5.10;99.90;;;;;;4999228;28;20198;-73
2024/01/27 04:13:19;;;;;;;20.60;5.57;;;5.10;99.90;;;;;;5002041;28;20236;-76
2024/01/27 04:15:45;;;;;;;15.15;3.88;;;5.10;99.90;;;;;;5001277;28;20279;-74
2024/01/27 04:18:13;;;;;;;10.07;3.38;;;5.00;99.90;;;;;;5008112;28;20680;-74
2024/01/27 04:20:40;;;;;;;17.33;4.00;;;5.00;99.90;;;;;;5000239;28;20212;-78
2024/01/27 04:23:07;;;;;;;18.00;5.00;;;5.10;99.90;;;;;;5007819;28;20229;-74
2024/01/27 04:25:35;;;;;;;26.05;6.45;;;5.10;99.90;;;;;;5013431;28;20209;-75
2024/01/27 04:28:03;;;;;;;19.23;5.28;;;5.10;99.90;;;;;;5007094;28;20198;-76
2024/01/27 04:30:30;;;;;;;15.05;4.78;;;5.00;99.90;;;;;;5002928;28;20221;-73
2024/01/27 04:32:57;;;;;;;13.48;4.47;;;5.00;99.90;;;;;;5002126;28;20221;-75
2024/01/27 04:35:24;;;;;;;14.00;4.05;;;4.90;99.90;;;;;;5007008;28;20216;-75
2024/01/27 04:37:51;;;;;;;26.75;4.65;;;4.90;99.90;;;;;;5005637;28;20613;-74
2024/01/27 04:40:18;;;;;;;30.80;4.85;;;4.80;99.90;;;;;;5008978;28;20214;-72
2024/01/27 04:42:46;;;;;;;20.90;5.72;;;4.80;99.90;;;;;;5004117;28;20700;-75
2024/01/27 04:45:16;;;;;;;19.40;4.50;;;4.80;99.90;;;;;;5008065;28;20205;-74
2024/01/27 04:47:43;;;;;;;10.32;3.50;;;4.80;99.90;;;;;;4998318;28;20637;-73
2024/01/27 04:50:10;;;;;;;17.55;3.85;;;4.80;99.90;;;;;;5007248;28;20210;-74
2024/01/27 04:52:37;;;;;;;13.93;3.97;;;4.70;99.90;;;;;;5011895;28;20295;-76
2024/01/27 04:55:05;;;;;;;16.90;3.78;;;4.70;99.90;;;;;;5006468;28;20202;-73
2024/01/27 04:57:32;;;;;;;12.15;4.05;;;4.70;99.90;;;;;;5001293;28;20220;-77
2024/01/27 05:00:00;;;;;;;15.27;4.38;;;4.60;99.90;;;;;;5008536;28;20244;-74
2024/01/27 05:02:27;;;;;;;26.17;4.40;;;4.60;99.90;;;;;;5007612;28;20218;-76
2024/01/27 05:04:54;;;;;;;16.23;3.42;;;4.60;99.90;;;;;;5007957;28;20209;-72
2024/01/27 05:07:22;;;;;;;21.90;4.85;;;4.50;99.90;;;;;;5017032;28;20558;-74
2024/01/27 05:09:49;;;;;;;16.90;3.83;;;4.50;99.90;;;;;;5004585;28;20229;-73
2024/01/27 05:12:16;;;;;;;20.58;5.45;;;4.50;99.90;;;;;;5010277;28;20233;-74
2024/01/27 05:14:45;;;;;;;18.48;4.82;;;4.50;99.90;;;;;;5004693;28;20206;-74
2024/01/27 05:17:13;;;;;;;22.38;5.35;;;4.50;99.90;;;;;;4999604;28;20230;-75
2024/01/27 05:19:40;;;;;;;25.30;3.97;;;4.40;99.90;;;;;;5007168;28;20205;-74
2024/01/27 05:22:07;;;;;;;13.73;5.32;;;4.40;99.90;;;;;;5005097;28;20261;-76
2024/01/27 05:24:34;;;;;;;15.23;3.83;;;4.40;99.90;;;;;;5005127;28;20220;-75
2024/01/27 05:27:01;;;;;;;16.15;4.13;;;4.40;99.90;;;;;;4999785;28;20202;-75
2024/01/27 05:29:28;;;;;;;26.00;5.07;;;4.40;99.90;;;;;;5004357;28;20209;-73
2024/01/27 05:31:55;;;;;;;18.70;4.78;;;4.40;99.90;;;;;;5004903;28;20229;-75
2024/01/27 05:34:24;;;;;;;27.80;4.95;;;4.40;99.90;;;;;;5000239;28;20260;-74
2024/01/27 05:36:51;;;;;;;22.33;4.18;;;4.30;99.90;;;;;;4998711;28;20226;-73
2024/01/27 05:39:18;;;;;;;10.32;4.25;;;4.40;99.90;;;;;;5005562;28;20268;-73
2024/01/27 05:41:45;;;;;;;13.50;4.55;;;4.30;99.90;;;;;;5005518;28;20640;-72
2024/01/27 05:44:12;;;;;;;16.02;4.00;;;4.30;99.90;;;;;;5012002;28;20202;-73
2024/01/27 05:46:39;;;;;;;14.05;4.10;;;4.30;99.90;;;;;;5007889;28;20208;-72
2024/01/27 05:49:06;;;;;;;15.95;4.35;;;4.30;99.90;;;;;;5010509;28;20202;-72
2024/01/27 05:51:34;;;;;;;21.38;4.50;;;4.30;99.90;;;;;;5006357;28;20212;-74
2024/01/27 05:54:02;;;;;;;27.70;5.60;;;4.30;99.90;;;;;;5006473;28;20611;-74
2024/01/27 05:56:29;;;;;;;21.15;4.63;;;4.20;99.90;;;;;;5006941;28;20208;-74
2024/01/27 05:58:56;;;;;;;18.42;3.85;;;4.20;99.90;;;;;;5009747;28;20232;-74
2024/01/27 06:01:23;;;;;;;23.48;4.78;;;4.20;99.90;;;;;;5009675;28;20240;-75
2024/01/27 06:03:49;;;;;;;21.85;5.22;;;4.20;99.90;;;;;;5004396;28;20703;-73
2024/01/27 06:06:16;;;;;;;13.48;3.85;;;4.20;99.90;;;;;;5009920;28;20232;-73
2024/01/27 06:08:45;;;;;;;23.23;5.45;;;4.20;99.90;;;;;;5001773;28;20257;-74
2024/01/27 06:11:12;;;;;;;16.83;4.15;;;4.20;99.90;;;;;;5011077;28;20265;-71
2024/01/27 06:13:43;;;;;;;24.00;4.10;;;4.10;99.90;;;;;;5007564;28;20225;-76
2024/01/27 06:16:10;;;;;;;13.93;4.50;;;4.20;99.90;;;;;;5011565;28;20206;-72
2024/01/27 06:18:38;;;;;;;18.00;4.03;;;4.20;99.90;;;;;;5018170;28;20237;-75
2024/01/27 06:21:07;;;;;;;14.07;6.85;;;4.20;99.90;;;;;;5011170;28;20213;-72
2024/01/27 06:23:34;;;;;;;19.75;4.53;;;4.20;99.90;;;;;;5007066;28;20234;-73
2024/01/27 06:26:06;;;;;;;17.35;6.22;;;4.20;99.90;;;;;;4996844;28;20206;-74
2024/01/27 06:28:34;;;;;;;27.95;5.50;;;4.20;99.90;;;;;;5004062;28;20584;-74
2024/01/27 06:31:01;;;;;;;13.43;4.00;;;4.20;99.90;;;;;;5013723;28;20205;-73
2024/01/27 06:33:28;;;;;;;7.93;3.30;;;4.20;99.90;;;;;;5009898;28;20300;-75
2024/01/27 06:35:55;;;;;;;12.00;3.40;;;4.20;99.90;;;;;;4997312;28;20661;-73
2024/01/27 06:38:22;;;;;;;15.43;5.50;;;4.10;99.90;;;;;;4994873;28;20316;-75
2024/01/27 06:40:49;;;;;;;21.40;6.18;;;4.10;99.90;;;;;;4996179;28;20206;-74
2024/01/27 06:43:18;;;;;;;15.40;4.57;;;4.20;99.90;;;;;;5001268;28;20296;-76
2024/01/27 06:45:45;;;;;;;19.58;5.68;;;4.20;99.90;;;;;;4998885;28;20209;-74
2024/01/27 06:48:12;;;;;;;15.15;4.68;;;4.20;99.90;;;;;;5011479;28;20288;-75
2024/01/27 06:50:39;;;;;;;24.52;5.93;;;4.10;99.90;;;;;;4997233;28;20202;-75
2024/01/27 06:53:06;;;;;;;17.08;4.55;;;4.20;99.90;;;;;;4999620;28;20230;-74
2024/01/27 06:55:32;;;;;;;23.35;8.10;;;4.20;99.90;;;;;;5001465;28;20209;-72
2024/01/27 06:57:59;;;;;;;18.33;5.43;;;4.20;99.90;;;;;;4997888;28;20253;-73
2024/01/27 07:00:28;;;;;;;22.77;4.60;;;4.10;99.90;;;;;;4997105;28;20241;-74
2024/01/27 07:02:55;;;;;;;12.73;4.28;;;4.10;99.90;;;;;;5007430;28;20269;-73
2024/01/27 07:05:22;;;;;;;12.45;5.00;;;4.10;99.90;;;;;;5000160;28;20214;-74
2024/01/27 07:07:49;;;;;;;25.60;5.50;;;4.20;99.90;;;;;;5000420;28;20225;-73
2024/01/27 07:10:18;;;;;;;15.32;5.05;;;4.10;99.90;;;;;;5006921;28;20300;-74
2024/01/27 07:12:45;;;;;;;14.00;5.95;;;4.10;99.90;;;;;;5005062;28;20225;-74
2024/01/27 07:15:12;;;;;;;16.00;4.70;;;4.10;99.90;;;;;;5001779;28;20284;-75
2024/01/27 07:17:41;;;;;;;17.02;4.65;;;4.10;99.90;;;;;;5001751;28;20226;-73
2024/01/27 07:20:09;;;;;;;15.85;4.28;;;4.10;99.90;;;;;;4998728;28;20259;-74
2024/01/27 07:22:36;;;;;;;15.88;6.38;;;4.10;99.90;;;;;;5006501;28;20249;-75
2024/01/27 07:25:04;;;;;;;17.80;6.63;;;4.10;99.90;;;;;;4996708;28;20205;-74
2024/01/27 07:27:30;;;;;;;19.65;5.35;;;4.10;99.90;;;;;;5005657;28;20656;-76
2024/01/27 07:29:58;;;;;;;21.55;6.63;;;4.20;99.90;;;;;;4998170;28;20212;-75
2024/01/27 07:32:26;;;;;;;20.77;6.65;;;4.20;99.90;;;;;;5002746;28;20631;-75
2024/01/27 07:34:55;;;;;;;19.05;7.55;;;4.30;99.90;;;;;;5003235;28;20272;-75
2024/01/27 07:37:22;;;;;;;14.00;5.95;;;4.30;99.90;;;;;;5000633;28;20324;-71
2024/01/27 07:39:50;;;;;;;10.55;4.10;;;4.30;99.90;;;;;;4995336;28;20214;-71
2024/01/27 07:42:17;;;;;;;9.88;4.93;;;4.30;99.90;;;;;;5001990;28;20338;-72
2024/01/27 07:44:44;;;;;;;14.40;5.35;;;4.30;99.90;;;;;;5004824;28;20216;-72
2024/01/27 07:47:11;;;;;;;24.52;6.20;;;4.30;99.90;;;;;;5003474;28;20206;-73
2024/01/27 07:49:38;;;;;;;16.17;4.45;;;4.30;99.90;;;;;;4996830;28;20296;-73
2024/01/27 07:52:07;;;;;;;23.65;6.53;;;4.40;99.90;;;;;;4996617;28;20689;-74
2024/01/27 07:54:38;;;;;;;22.95;6.25;;;4.40;99.90;;;;;;5004308;28;20214;-74
2024/01/27 07:57:06;;;;;;;15.18;5.30;;;4.50;99.90;;;;;;5006152;28;20205;-76
2024/01/27 07:59:32;;;;;;;11.88;4.05;;;4.60;99.90;;;;;;4998875;28;20205;-74
2024/01/27 08:02:01;;;;;;;12.82;4.07;;;4.60;99.90;;;;;;4994647;28;20270;-73
2024/01/27 08:04:28;;;;;;;23.27;5.47;;;4.80;99.90;;;;;;5005335;28;20228;-76
2024/01/27 08:06:55;;;;;;;21.00;5.20;;;4.80;99.90;;;;;;4994422;28;20206;-74
2024/01/27 08:09:24;;;;;;;14.93;5.60;;;4.90;99.90;;;;;;4993363;28;20237;-75
2024/01/27 08:11:52;;;;;;;20.30;4.88;;;5.00;99.90;;;;;;4994496;28;20226;-75
2024/01/27 08:14:20;;;;;;;16.27;3.97;;;5.20;99.90;;;;;;5001958;28;20209;-72
2024/01/27 08:16:47;;;;;;;15.63;4.40;;;5.50;99.90;;;;;;5006651;28;20193;-76
2024/01/27 08:19:19;;;;;;;12.60;4.20;;;6.20;99.90;;;;;;5000981;28;20213;-74
2024/01/27 08:21:46;;;;;;;9.65;4.82;;;6.70;99.90;;;;;;5011792;28;20644;-74
2024/01/27 08:24:13;;;;;;;23.00;5.82;;;7.20;99.90;;;;;;5004015;28;20214;-77
2024/01/27 08:26:42;;;;;;;14.00;4.90;;;7.70;99.90;;;;;;5005212;28;20210;-75
2024/01/27 08:29:09;;;;;;;13.68;5.15;;;8.10;99.90;;;;;;5003487;28;20206;-75
2024/01/27 08:31:38;;;;;;;10.55;3.85;;;8.10;99.90;;;;;;5003775;28;20267;-76
2024/01/27 08:34:05;;;;;;;15.77;5.93;;;8.10;99.90;;;;;;5007601;28;20202;-76
2024/01/27 08:36:33;;;;;;;16.58;4.90;;;8.50;99.90;;;;;;5002222;28;20209;-76
2024/01/27 08:39:00;;;;;;;24.00;5.10;;;8.80;99.90;;;;;;4997832;28;20234;-74
2024/01/27 08:41:27;;;;;;;13.55;3.85;;;9.40;99.90;;;;;;5005969;28;20206;-75
2024/01/27 08:43:59;;;;;;;15.43;4.65;;;9.90;99.90;;;;;;5010583;28;20221;-76
2024/01/27 08:46:26;;;;;;;9.88;4.18;;;10.90;99.90;;;;;;4998236;28;20237;-70
2024/01/27 08:48:53;;;;;;;15.88;4.18;;;11.40;99.90;;;;;;4998918;28;20621;-73
2024/01/27 08:51:20;;;;;;;12.15;4.03;;;11.50;99.90;;;;;;4998636;28;20261;-77
2024/01/27 08:53:48;;;;;;;13.98;4.55;;;12.10;99.90;;;;;;5005034;28;20280;-74
2024/01/27 08:56:16;;;;;;;28.50;6.30;;;12.30;99.90;;;;;;5007024;28;20205;-73
2024/01/27 08:58:43;;;;;;;13.55;4.63;;;12.30;99.90;;;;;;5002567;28;20229;-72
2024/01/27 09:01:14;;;;;;;9.40;4.00;;;12.10;99.90;;;;;;4995457;28;20202;-77
2024/01/27 09:03:41;;;;;;;14.82;5.88;;;12.60;99.30;;;;;;5012175;28;20225;-73
2024/01/27 09:06:09;;;;;;;17.05;6.15;;;12.30;99.30;;;;;;5004357;28;20202;-76
2024/01/27 09:08:36;;;;;;;22.70;5.55;;;11.90;99.70;;;;;;5013286;28;20200;-75
2024/01/27 09:11:03;;;;;;;16.30;5.18;;;11.70;99.90;;;;;;5005260;28;20210;-76
2024/01/27 09:13:30;;;;;;;14.77;5.60;;;11.90;99.90;;;;;;5007600;28;20609;-75
2024/01/27 09:15:59;;;;;;;10.93;6.05;;;11.60;99.90;;;;;;5009451;28;20296;-76
2024/01/27 09:18:27;;;;;;;12.20;4.70;;;11.70;99.90;;;;;;5003891;28;20221;-77
2024/01/27 09:20:54;;;;;;;16.50;4.95;;;12.40;99.90;;;;;;5005789;28;20206;-78
2024/01/27 09:23:21;;;;;;;15.35;4.97;;;12.10;99.90;;;;;;5016665;28;20260;-74
2024/01/27 09:25:48;;;;;;;17.80;7.00;;;12.70;99.60;;;;;;5017888;28;20234;-76
2024/01/27 09:28:15;;;;;;;15.63;5.25;;;12.50;98.70;;;;;;5018715;28;20214;-77
2024/01/27 09:30:43;;;;;;;19.02;6.25;;;12.50;98.90;;;;;;5023480;28;20209;-77
2024/01/27 09:33:10;;;;;;;17.50;6.60;;;12.40;99.60;;;;;;5011869;28;20248;-77
2024/01/27 09:35:38;;;;;;;19.88;5.40;;;12.20;98.90;;;;;;4995699;28;20657;-73
2024/01/27 09:38:07;;;;;;;16.45;5.75;;;12.40;99.40;;;;;;4997907;28;20364;-77
2024/01/27 09:40:35;;;;;;;15.20;5.75;;;12.20;99.40;;;;;;5006885;28;20260;-77
2024/01/27 09:43:02;;;;;;;13.73;5.75;;;12.50;99.10;;;;;;5004004;28;20252;-79
2024/01/27 09:45:29;;;;;;;14.45;5.30;;;12.40;99.10;;;;;;5007605;28;20204;-78
2024/01/27 09:47:59;;;;;;;14.13;6.85;;;12.60;98.60;;;;;;5000932;28;20706;-78
2024/01/27 09:50:26;;;;;;;10.80;4.35;;;12.30;98.50;;;;;;5006027;28;20576;-77
2024/01/27 09:52:54;;;;;;;18.08;5.88;;;11.80;99.50;;;;;;5003152;28;20225;-78
2024/01/27 09:55:21;;;;;;;16.52;5.72;;;11.70;99.90;;;;;;5002221;28;20206;-78
2024/01/27 09:57:49;;;;;;;15.60;6.57;;;11.20;99.90;;;;;;5001515;28;20252;-77
2024/01/27 10:00:17;;;;;;;16.58;6.30;;;11.00;99.90;;;;;;4999849;28;20297;-80
2024/01/27 10:02:47;;;;;;;14.35;7.00;;;11.10;99.90;;;;;;5008674;28;20222;-75
2024/01/27 10:05:15;;;;;;;18.20;6.10;;;11.40;99.90;;;;;;5006569;28;20253;-77
2024/01/27 10:07:42;;;;;;;12.10;4.90;;;11.70;99.90;;;;;;5003658;28;20202;-78
2024/01/27 10:10:11;;;;;;;12.98;5.35;;;11.80;99.90;;;;;;5002731;28;20581;-79
2024/01/27 10:12:42;;;;;;;17.52;5.40;;;11.60;99.90;;;;;;4998276;28;20233;-80
2024/01/27 10:15:20;;;;;;;13.18;5.40;;;12.10;99.90;;;;;;5010682;28;20248;-77
2024/01/27 10:17:47;;;;;;;17.35;6.63;;;12.70;99.90;;;;;;5002171;28;20249;-78
2024/01/27 10:20:15;;;;;;;21.33;9.00;;;12.50;99.10;;;;;;5011714;28;20408;-76
2024/01/27 10:22:44;;;;;;;17.58;7.80;;;12.60;99.60;;;;;;5019413;28;20237;-78
2024/01/27 10:25:13;;;;;;;15.63;7.00;;;12.20;98.80;;;;;;5011879;28;20210;-76
2024/01/27 10:27:41;;;;;;;18.50;7.45;;;11.60;99.50;;;;;;5002625;28;20237;-78
2024/01/27 10:30:17;;;;;;;19.30;7.97;;;11.30;99.90;;;;;;4999783;28;20210;-77
2024/01/27 10:32:44;;;;;;;22.33;9.32;;;10.60;99.90;;;;;;5001635;28;20230;-76
2024/01/27 10:35:11;;;;;;;13.18;7.72;;;10.20;99.90;;;;;;5000987;28;20245;-76
2024/01/27 10:37:39;;;;;;;17.08;7.50;;;10.40;99.90;;;;;;5007223;28;20202;-77
2024/01/27 10:40:08;;;;;;;18.17;8.65;;;10.50;99.90;;;;;;4998312;28;20197;-77
2024/01/27 10:42:38;;;;;;;19.77;8.55;;;10.90;99.90;;;;;;5010742;28;20222;-77
2024/01/27 10:45:08;;;;;;;17.10;7.43;;;10.90;99.90;;;;;;5004569;28;20241;-78
2024/01/27 10:47:35;;;;;;;15.07;8.57;;;10.60;99.90;;;;;;5004492;28;20323;-77
2024/01/27 10:50:02;;;;;;;20.67;8.60;;;10.40;99.90;;;;;;5005309;28;20202;-79
2024/01/27 10:52:32;;;;;;;24.83;9.32;;;10.20;99.90;;;;;;4996408;28;20288;-78
2024/01/27 10:55:02;;;;;;;21.50;8.63;;;9.90;99.90;;;;;;5004522;28;20277;-78
2024/01/27 10:57:31;;;;;;;17.98;10.10;;;9.60;99.90;;;;;;5008024;28;20611;-78
2024/01/27 11:00:01;;;;;;;27.65;9.82;;;8.80;99.90;;;;;;5008660;28;20267;-77
2024/01/27 11:02:32;;;;;;;20.95;9.25;;;8.90;99.90;;;;;;5011136;28;20232;-76
2024/01/27 11:05:01;;;;;;;21.20;9.75;;;9.00;99.90;;;;;;4998935;28;20265;-78
2024/01/27 11:07:29;;;;;;;20.33;10.10;;;8.90;99.90;;;;;;5003126;28;20297;-75
2024/01/27 11:09:56;;;;;;;14.85;9.75;;;8.70;99.90;;;;;;4999827;28;20745;-79
2024/01/27 11:12:24;;;;;;;13.43;9.40;;;8.70;99.90;;;;;;5001802;28;20241;-77
2024/01/27 11:14:52;;;;;;;22.27;9.05;;;8.60;99.90;;;;;;4996443;28;20708;-78
2024/01/27 11:17:21;;;;;;;15.65;8.27;;;8.50;99.90;;;;;;4994533;28;20288;-76
2024/01/27 11:19:50;;;;;;;16.42;9.07;;;8.40;99.90;;;;;;4996768;28;20225;-77
2024/01/27 11:22:27;;;;;;;15.73;8.98;;;8.40;99.90;;;;;;5012133;28;20289;-76
2024/01/27 11:24:54;;;;;;;22.73;9.13;;;8.30;99.90;;;;;;5006993;28;20208;-78
2024/01/27 11:27:29;;;;;;;18.95;9.15;;;8.10;99.90;;;;;;5001545;28;20309;-77
2024/01/27 11:29:56;;;;;;;25.38;9.60;;;8.30;99.90;;;;;;4997123;28;20284;-78
2024/01/27 11:32:24;;;;;;;21.95;9.10;;;8.20;99.90;;;;;;4999260;28;20261;-77
2024/01/27 11:34:51;;;;;;;22.52;9.75;;;8.10;99.90;;;;;;4996921;28;20745;-77
2024/01/27 11:37:24;;;;;;;20.25;8.90;;;8.00;99.90;;;;;;5006917;28;20586;-75
2024/01/27 11:39:51;;;;;;;12.55;8.32;;;8.00;99.90;;;;;;4997860;28;20229;-77
2024/01/27 11:42:18;;;;;;;18.25;9.90;;;8.00;99.90;;;;;;5004615;28;20292;-79
2024/01/27 11:44:45;;;;;;;23.90;9.85;;;8.00;99.90;;;;;;5007849;28;20556;-77
2024/01/27 11:47:17;;;;;;;21.55;8.13;;;8.10;99.90;;;;;;5005402;28;20236;-76
2024/01/27 11:49:53;;;;;;;20.00;8.32;;;8.20;99.90;;;;;;4999975;28;20642;-75
2024/01/27 11:52:20;;;;;;;26.15;10.00;;;8.20;99.90;;;;;;5003210;28;20312;-78
2024/01/27 11:54:47;;;;;;;24.00;10.13;;;8.30;99.90;;;;;;4995880;28;20664;-76
2024/01/27 11:57:14;;;;;;;24.50;8.95;;;8.40;99.90;;;;;;5008042;28;20206;-79
2024/01/27 11:59:41;;;;;;;18.05;9.68;;;8.50;99.90;;;;;;5005694;28;20232;-76
2024/01/27 12:02:08;;;;;;;19.98;8.65;;;8.40;99.90;;;;;;5000512;28;20225;-75
2024/01/27 12:04:35;;;;;;;15.65;8.20;;;8.40;99.90;;;;;;5012463;28;20236;-77
2024/01/27 12:07:05;;;;;;;28.48;8.63;;;8.40;99.90;;;;;;5009678;28;20201;-79
2024/01/27 12:09:32;;;;;;;17.70;7.05;;;8.30;99.90;;;;;;5008197;28;20208;-75
2024/01/27 12:11:59;;;;;;;17.00;8.32;;;8.40;99.90;;;;;;5015681;28;20229;-75
2024/01/27 12:14:26;;;;;;;18.95;9.50;;;8.50;99.90;;;;;;5016844;28;20224;-77
2024/01/27 12:16:53;;;;;;;16.52;8.65;;;8.50;99.90;;;;;;5011219;28;20648;-77
2024/01/27 12:19:21;;;;;;;31.55;10.57;;;8.50;99.90;;;;;;5004579;28;20696;-77
2024/01/27 12:21:51;;;;;;;16.88;8.52;;;8.40;99.90;;;;;;4998637;28;20249;-77
2024/01/27 12:24:19;;;;;;;15.20;7.75;;;8.40;99.90;;;;;;5007043;28;20220;-78
2024/01/27 12:26:47;;;;;;;14.75;7.05;;;8.40;99.90;;;;;;5007440;28;20201;-77
2024/01/27 12:29:14;;;;;;;18.40;8.00;;;8.50;99.90;;;;;;5000975;28;20269;-78
2024/01/27 12:31:41;;;;;;;15.13;8.10;;;8.50;99.90;;;;;;5004267;28;20649;-75
2024/01/27 12:34:09;;;;;;;19.60;7.43;;;8.60;99.90;;;;;;5007347;28;20290;-77
2024/01/27 12:36:42;;;;;;;21.17;8.95;;;8.70;99.90;;;;;;5011058;28;20212;-76
2024/01/27 12:39:10;;;;;;;24.77;7.47;;;8.60;99.90;;;;;;5007032;28;20606;-76
2024/01/27 12:41:39;;;;;;;13.57;6.97;;;8.60;99.90;;;;;;5008012;28;20213;-76
2024/01/27 12:44:07;;;;;;;20.88;8.05;;;8.60;99.90;;;;;;5013469;28;20202;-77
2024/01/27 12:46:34;;;;;;;7.75;5.57;;;8.60;99.90;;;;;;5004425;28;20210;-77
2024/01/27 12:49:01;;;;;;;26.20;8.60;;;8.60;99.90;;;;;;5004867;28;20615;-74